sensor_id;sensor_type;location;lat;lon;timestamp;P1;durP1;ratioP1;P2;durP2;ratioP2
18378;SDS011;27025;51.986;5.984;2023-03-14T00:00:33;8.85;;;3.33;;
18378;SDS011;27025;51.986;5.984;2023-03-14T00:02:59;8.43;;;3.33;;
18378;SDS011;27025;51.986;5.984;2023-03-14T00:05:25;6.37;;;3.00;;
18378;SDS011;27025;51.986;5.984;2023-03-14T00:07:52;8.47;;;3.00;;
18378;SDS011;27025;51.986;5.984;2023-03-14T00:10:18;7.40;;;2.87;;
18378;SDS011;27025;51.986;5.984;2023-03-14T00:12:44;10.63;;;3.10;;
18378;SDS011;27025;51.986;5.984;2023-03-14T00:15:10;7.30;;;3.10;;
18378;SDS011;27025;51.986;5.984;2023-03-14T00:17:37;11.97;;;3.37;;
18378;SDS011;27025;51.986;5.984;2023-03-14T00:20:03;8.93;;;3.10;;
18378;SDS011;27025;51.986;5.984;2023-03-14T00:22:36;10.13;;;2.73;;
18378;SDS011;27025;51.986;5.984;2023-03-14T00:25:03;6.97;;;2.43;;
18378;SDS011;27025;51.986;5.984;2023-03-14T00:27:29;6.10;;;2.30;;
18378;SDS011;27025;51.986;5.984;2023-03-14T00:29:55;6.00;;;2.40;;
18378;SDS011;27025;51.986;5.984;2023-03-14T00:32:21;6.73;;;2.30;;
18378;SDS011;27025;51.986;5.984;2023-03-14T00:34:48;8.00;;;2.60;;
18378;SDS011;27025;51.986;5.984;2023-03-14T00:37:14;5.73;;;2.67;;
18378;SDS011;27025;51.986;5.984;2023-03-14T00:39:40;9.50;;;2.73;;
18378;SDS011;27025;51.986;5.984;2023-03-14T00:42:06;6.67;;;2.33;;
18378;SDS011;27025;51.986;5.984;2023-03-14T00:44:32;8.77;;;2.63;;
18378;SDS011;27025;51.986;5.984;2023-03-14T00:46:58;6.13;;;2.50;;
18378;SDS011;27025;51.986;5.984;2023-03-14T00:49:24;6.77;;;2.13;;
18378;SDS011;27025;51.986;5.984;2023-03-14T00:51:50;9.30;;;2.88;;
18378;SDS011;27025;51.986;5.984;2023-03-14T00:54:17;7.53;;;2.47;;
18378;SDS011;27025;51.986;5.984;2023-03-14T00:56:43;7.00;;;2.77;;
18378;SDS011;27025;51.986;5.984;2023-03-14T00:59:09;5.95;;;2.33;;
18378;SDS011;27025;51.986;5.984;2023-03-14T01:01:35;8.40;;;2.37;;
18378;SDS011;27025;51.986;5.984;2023-03-14T01:04:01;7.27;;;2.10;;
18378;SDS011;27025;51.986;5.984;2023-03-14T01:06:28;5.40;;;2.10;;
18378;SDS011;27025;51.986;5.984;2023-03-14T01:08:55;7.70;;;1.97;;
18378;SDS011;27025;51.986;5.984;2023-03-14T01:11:26;10.33;;;2.37;;
18378;SDS011;27025;51.986;5.984;2023-03-14T01:13:52;8.10;;;2.10;;
18378;SDS011;27025;51.986;5.984;2023-03-14T01:16:19;6.93;;;2.30;;
18378;SDS011;27025;51.986;5.984;2023-03-14T01:18:45;7.28;;;2.45;;
18378;SDS011;27025;51.986;5.984;2023-03-14T01:21:13;10.45;;;2.90;;
18378;SDS011;27025;51.986;5.984;2023-03-14T01:23:40;5.90;;;2.30;;
18378;SDS011;27025;51.986;5.984;2023-03-14T01:26:10;9.00;;;2.33;;
18378;SDS011;27025;51.986;5.984;2023-03-14T01:28:37;9.43;;;2.58;;
18378;SDS011;27025;51.986;5.984;2023-03-14T01:31:04;8.47;;;2.30;;
18378;SDS011;27025;51.986;5.984;2023-03-14T01:33:30;5.97;;;2.40;;
18378;SDS011;27025;51.986;5.984;2023-03-14T01:35:56;9.40;;;2.70;;
18378;SDS011;27025;51.986;5.984;2023-03-14T01:38:22;6.47;;;2.33;;
18378;SDS011;27025;51.986;5.984;2023-03-14T01:40:48;10.83;;;2.73;;
18378;SDS011;27025;51.986;5.984;2023-03-14T01:43:16;11.03;;;2.40;;
18378;SDS011;27025;51.986;5.984;2023-03-14T01:48:24;5.90;;;2.10;;
18378;SDS011;27025;51.986;5.984;2023-03-14T01:50:51;5.07;;;2.30;;
18378;SDS011;27025;51.986;5.984;2023-03-14T01:53:17;9.00;;;2.20;;
18378;SDS011;27025;51.986;5.984;2023-03-14T01:55:46;8.37;;;2.40;;
18378;SDS011;27025;51.986;5.984;2023-03-14T01:58:12;6.17;;;2.10;;
18378;SDS011;27025;51.986;5.984;2023-03-14T02:00:39;7.17;;;2.23;;
18378;SDS011;27025;51.986;5.984;2023-03-14T02:03:06;8.50;;;2.33;;
18378;SDS011;27025;51.986;5.984;2023-03-14T02:05:35;8.43;;;2.40;;
18378;SDS011;27025;51.986;5.984;2023-03-14T02:08:02;8.70;;;2.37;;
18378;SDS011;27025;51.986;5.984;2023-03-14T02:10:34;7.93;;;2.37;;
18378;SDS011;27025;51.986;5.984;2023-03-14T02:13:02;5.40;;;2.40;;
18378;SDS011;27025;51.986;5.984;2023-03-14T02:15:28;9.10;;;2.80;;
18378;SDS011;27025;51.986;5.984;2023-03-14T02:17:55;9.00;;;2.60;;
18378;SDS011;27025;51.986;5.984;2023-03-14T02:22:54;10.23;;;2.97;;
18378;SDS011;27025;51.986;5.984;2023-03-14T02:25:23;10.00;;;2.80;;
18378;SDS011;27025;51.986;5.984;2023-03-14T02:27:51;13.37;;;2.50;;
18378;SDS011;27025;51.986;5.984;2023-03-14T02:30:22;11.03;;;2.93;;
18378;SDS011;27025;51.986;5.984;2023-03-14T02:32:50;9.23;;;3.13;;
18378;SDS011;27025;51.986;5.984;2023-03-14T02:35:24;10.83;;;2.97;;
18378;SDS011;27025;51.986;5.984;2023-03-14T02:40:20;9.93;;;2.60;;
18378;SDS011;27025;51.986;5.984;2023-03-14T02:42:46;10.30;;;2.63;;
18378;SDS011;27025;51.986;5.984;2023-03-14T02:47:43;11.00;;;2.57;;
18378;SDS011;27025;51.986;5.984;2023-03-14T02:50:13;9.47;;;2.53;;
18378;SDS011;27025;51.986;5.984;2023-03-14T02:52:40;11.13;;;2.73;;
18378;SDS011;27025;51.986;5.984;2023-03-14T02:55:06;7.97;;;2.40;;
18378;SDS011;27025;51.986;5.984;2023-03-14T02:57:32;9.90;;;2.27;;
18378;SDS011;27025;51.986;5.984;2023-03-14T02:59:58;10.53;;;2.67;;
18378;SDS011;27025;51.986;5.984;2023-03-14T03:02:25;9.87;;;2.60;;
18378;SDS011;27025;51.986;5.984;2023-03-14T03:04:51;10.80;;;2.17;;
18378;SDS011;27025;51.986;5.984;2023-03-14T03:07:17;6.40;;;2.20;;
18378;SDS011;27025;51.986;5.984;2023-03-14T03:09:44;9.03;;;2.50;;
18378;SDS011;27025;51.986;5.984;2023-03-14T03:12:10;7.07;;;2.37;;
18378;SDS011;27025;51.986;5.984;2023-03-14T03:14:36;8.80;;;2.70;;
18378;SDS011;27025;51.986;5.984;2023-03-14T03:17:02;9.93;;;2.57;;
18378;SDS011;27025;51.986;5.984;2023-03-14T03:19:28;7.70;;;2.70;;
18378;SDS011;27025;51.986;5.984;2023-03-14T03:21:55;8.33;;;2.53;;
18378;SDS011;27025;51.986;5.984;2023-03-14T03:24:21;9.30;;;2.77;;
18378;SDS011;27025;51.986;5.984;2023-03-14T03:26:47;8.53;;;2.63;;
18378;SDS011;27025;51.986;5.984;2023-03-14T03:29:12;11.03;;;2.50;;
18378;SDS011;27025;51.986;5.984;2023-03-14T03:31:39;11.50;;;2.37;;
18378;SDS011;27025;51.986;5.984;2023-03-14T03:34:05;9.73;;;2.80;;
18378;SDS011;27025;51.986;5.984;2023-03-14T03:36:31;8.10;;;2.67;;
18378;SDS011;27025;51.986;5.984;2023-03-14T03:38:57;11.20;;;2.97;;
18378;SDS011;27025;51.986;5.984;2023-03-14T03:41:23;9.93;;;2.80;;
18378;SDS011;27025;51.986;5.984;2023-03-14T03:43:49;9.53;;;3.10;;
18378;SDS011;27025;51.986;5.984;2023-03-14T03:46:15;10.60;;;2.50;;
18378;SDS011;27025;51.986;5.984;2023-03-14T03:48:41;10.17;;;2.70;;
18378;SDS011;27025;51.986;5.984;2023-03-14T03:51:07;8.83;;;2.77;;
18378;SDS011;27025;51.986;5.984;2023-03-14T03:53:33;10.93;;;3.00;;
18378;SDS011;27025;51.986;5.984;2023-03-14T03:55:59;10.07;;;2.80;;
18378;SDS011;27025;51.986;5.984;2023-03-14T03:58:25;7.57;;;2.90;;
18378;SDS011;27025;51.986;5.984;2023-03-14T04:00:51;14.47;;;3.60;;
18378;SDS011;27025;51.986;5.984;2023-03-14T04:03:17;11.40;;;3.00;;
18378;SDS011;27025;51.986;5.984;2023-03-14T04:05:43;11.03;;;2.90;;
18378;SDS011;27025;51.986;5.984;2023-03-14T04:08:10;10.47;;;3.37;;
18378;SDS011;27025;51.986;5.984;2023-03-14T04:10:36;9.33;;;2.80;;
18378;SDS011;27025;51.986;5.984;2023-03-14T04:13:02;13.00;;;3.33;;
18378;SDS011;27025;51.986;5.984;2023-03-14T04:15:28;13.03;;;3.47;;
18378;SDS011;27025;51.986;5.984;2023-03-14T04:17:57;13.97;;;3.53;;
18378;SDS011;27025;51.986;5.984;2023-03-14T04:20:23;10.13;;;3.03;;
18378;SDS011;27025;51.986;5.984;2023-03-14T04:22:49;10.97;;;3.17;;
18378;SDS011;27025;51.986;5.984;2023-03-14T04:25:15;11.13;;;3.00;;
18378;SDS011;27025;51.986;5.984;2023-03-14T04:27:42;11.13;;;2.83;;
18378;SDS011;27025;51.986;5.984;2023-03-14T04:30:08;10.03;;;2.80;;
18378;SDS011;27025;51.986;5.984;2023-03-14T04:32:34;8.50;;;3.07;;
18378;SDS011;27025;51.986;5.984;2023-03-14T04:35:00;10.87;;;3.07;;
18378;SDS011;27025;51.986;5.984;2023-03-14T04:37:26;8.87;;;2.53;;
18378;SDS011;27025;51.986;5.984;2023-03-14T04:39:52;12.57;;;2.97;;
18378;SDS011;27025;51.986;5.984;2023-03-14T04:42:18;10.37;;;2.80;;
18378;SDS011;27025;51.986;5.984;2023-03-14T04:44:44;11.90;;;3.20;;
18378;SDS011;27025;51.986;5.984;2023-03-14T04:47:11;10.47;;;3.10;;
18378;SDS011;27025;51.986;5.984;2023-03-14T04:49:37;11.60;;;2.80;;
18378;SDS011;27025;51.986;5.984;2023-03-14T04:52:03;9.87;;;2.50;;
18378;SDS011;27025;51.986;5.984;2023-03-14T04:54:30;7.93;;;2.83;;
18378;SDS011;27025;51.986;5.984;2023-03-14T04:56:56;10.37;;;2.57;;
18378;SDS011;27025;51.986;5.984;2023-03-14T04:59:22;9.23;;;2.90;;
18378;SDS011;27025;51.986;5.984;2023-03-14T05:01:48;8.20;;;2.10;;
18378;SDS011;27025;51.986;5.984;2023-03-14T05:04:14;7.47;;;2.07;;
18378;SDS011;27025;51.986;5.984;2023-03-14T05:06:40;8.40;;;2.23;;
18378;SDS011;27025;51.986;5.984;2023-03-14T05:09:07;9.70;;;2.40;;
18378;SDS011;27025;51.986;5.984;2023-03-14T05:11:33;9.90;;;2.33;;
18378;SDS011;27025;51.986;5.984;2023-03-14T05:13:59;9.33;;;2.27;;
18378;SDS011;27025;51.986;5.984;2023-03-14T05:16:25;9.17;;;2.40;;
18378;SDS011;27025;51.986;5.984;2023-03-14T05:18:51;7.93;;;2.27;;
18378;SDS011;27025;51.986;5.984;2023-03-14T05:21:17;8.73;;;2.13;;
18378;SDS011;27025;51.986;5.984;2023-03-14T05:23:43;10.70;;;2.37;;
18378;SDS011;27025;51.986;5.984;2023-03-14T05:26:09;5.03;;;1.73;;
18378;SDS011;27025;51.986;5.984;2023-03-14T05:28:35;8.50;;;1.93;;
18378;SDS011;27025;51.986;5.984;2023-03-14T05:31:05;5.83;;;1.97;;
18378;SDS011;27025;51.986;5.984;2023-03-14T05:33:31;7.90;;;1.80;;
18378;SDS011;27025;51.986;5.984;2023-03-14T05:35:57;5.87;;;1.70;;
18378;SDS011;27025;51.986;5.984;2023-03-14T05:38:23;9.50;;;2.65;;
18378;SDS011;27025;51.986;5.984;2023-03-14T05:40:49;8.50;;;2.25;;
18378;SDS011;27025;51.986;5.984;2023-03-14T05:43:15;6.37;;;2.40;;
18378;SDS011;27025;51.986;5.984;2023-03-14T05:45:42;8.45;;;2.50;;
18378;SDS011;27025;51.986;5.984;2023-03-14T05:48:08;6.47;;;2.40;;
18378;SDS011;27025;51.986;5.984;2023-03-14T05:50:34;7.90;;;2.50;;
18378;SDS011;27025;51.986;5.984;2023-03-14T05:53:00;7.53;;;2.72;;
18378;SDS011;27025;51.986;5.984;2023-03-14T05:55:26;6.90;;;2.78;;
18378;SDS011;27025;51.986;5.984;2023-03-14T05:57:53;8.10;;;2.60;;
18378;SDS011;27025;51.986;5.984;2023-03-14T06:00:19;6.75;;;2.20;;
18378;SDS011;27025;51.986;5.984;2023-03-14T06:02:45;8.43;;;2.50;;
18378;SDS011;27025;51.986;5.984;2023-03-14T06:05:11;7.03;;;2.47;;
18378;SDS011;27025;51.986;5.984;2023-03-14T06:07:44;6.43;;;2.50;;
18378;SDS011;27025;51.986;5.984;2023-03-14T06:10:10;7.03;;;2.10;;
18378;SDS011;27025;51.986;5.984;2023-03-14T06:12:36;6.93;;;2.37;;
18378;SDS011;27025;51.986;5.984;2023-03-14T06:15:02;6.50;;;2.30;;
18378;SDS011;27025;51.986;5.984;2023-03-14T06:17:28;6.30;;;2.27;;
18378;SDS011;27025;51.986;5.984;2023-03-14T06:19:54;6.00;;;2.23;;
18378;SDS011;27025;51.986;5.984;2023-03-14T06:22:20;4.80;;;2.00;;
18378;SDS011;27025;51.986;5.984;2023-03-14T06:24:46;6.80;;;2.13;;
18378;SDS011;27025;51.986;5.984;2023-03-14T06:27:12;5.40;;;2.00;;
18378;SDS011;27025;51.986;5.984;2023-03-14T06:29:38;6.63;;;2.20;;
18378;SDS011;27025;51.986;5.984;2023-03-14T06:32:04;3.90;;;2.17;;
18378;SDS011;27025;51.986;5.984;2023-03-14T06:34:30;4.33;;;2.40;;
18378;SDS011;27025;51.986;5.984;2023-03-14T06:36:56;4.87;;;2.70;;
18378;SDS011;27025;51.986;5.984;2023-03-14T06:39:22;5.50;;;2.43;;
18378;SDS011;27025;51.986;5.984;2023-03-14T06:41:48;5.03;;;2.30;;
18378;SDS011;27025;51.986;5.984;2023-03-14T06:44:14;4.73;;;2.73;;
18378;SDS011;27025;51.986;5.984;2023-03-14T06:46:40;6.07;;;3.00;;
18378;SDS011;27025;51.986;5.984;2023-03-14T06:49:06;8.23;;;3.30;;
18378;SDS011;27025;51.986;5.984;2023-03-14T06:51:32;7.97;;;3.40;;
18378;SDS011;27025;51.986;5.984;2023-03-14T06:53:59;6.10;;;3.20;;
18378;SDS011;27025;51.986;5.984;2023-03-14T06:56:25;7.40;;;3.37;;
18378;SDS011;27025;51.986;5.984;2023-03-14T06:58:51;5.70;;;3.30;;
18378;SDS011;27025;51.986;5.984;2023-03-14T07:01:18;7.97;;;3.70;;
18378;SDS011;27025;51.986;5.984;2023-03-14T07:03:45;9.33;;;3.57;;
18378;SDS011;27025;51.986;5.984;2023-03-14T07:06:11;9.23;;;3.93;;
18378;SDS011;27025;51.986;5.984;2023-03-14T07:08:37;7.63;;;4.10;;
18378;SDS011;27025;51.986;5.984;2023-03-14T07:11:04;7.30;;;4.03;;
18378;SDS011;27025;51.986;5.984;2023-03-14T07:13:30;6.80;;;3.87;;
18378;SDS011;27025;51.986;5.984;2023-03-14T07:15:56;6.63;;;4.30;;
18378;SDS011;27025;51.986;5.984;2023-03-14T07:18:22;8.80;;;4.07;;
18378;SDS011;27025;51.986;5.984;2023-03-14T07:20:48;8.17;;;4.90;;
18378;SDS011;27025;51.986;5.984;2023-03-14T07:23:14;8.07;;;4.73;;
18378;SDS011;27025;51.986;5.984;2023-03-14T07:25:40;11.20;;;5.30;;
18378;SDS011;27025;51.986;5.984;2023-03-14T07:28:06;10.90;;;4.80;;
18378;SDS011;27025;51.986;5.984;2023-03-14T07:30:32;8.17;;;5.20;;
18378;SDS011;27025;51.986;5.984;2023-03-14T07:32:58;11.70;;;5.20;;
18378;SDS011;27025;51.986;5.984;2023-03-14T07:35:24;7.00;;;4.90;;
18378;SDS011;27025;51.986;5.984;2023-03-14T07:37:50;5.07;;;3.37;;
18378;SDS011;27025;51.986;5.984;2023-03-14T07:40:16;4.77;;;3.30;;
18378;SDS011;27025;51.986;5.984;2023-03-14T07:42:42;4.90;;;3.27;;
18378;SDS011;27025;51.986;5.984;2023-03-14T07:45:09;4.20;;;2.77;;
18378;SDS011;27025;51.986;5.984;2023-03-14T07:47:35;5.77;;;3.50;;
18378;SDS011;27025;51.986;5.984;2023-03-14T07:50:02;4.07;;;2.90;;
18378;SDS011;27025;51.986;5.984;2023-03-14T07:52:28;4.60;;;1.90;;
18378;SDS011;27025;51.986;5.984;2023-03-14T07:54:54;3.37;;;1.60;;
18378;SDS011;27025;51.986;5.984;2023-03-14T07:57:21;3.87;;;1.70;;
18378;SDS011;27025;51.986;5.984;2023-03-14T07:59:48;1.60;;;1.50;;
18378;SDS011;27025;51.986;5.984;2023-03-14T08:02:14;3.57;;;1.43;;
18378;SDS011;27025;51.986;5.984;2023-03-14T08:04:41;6.47;;;1.60;;
18378;SDS011;27025;51.986;5.984;2023-03-14T08:07:07;3.00;;;1.60;;
18378;SDS011;27025;51.986;5.984;2023-03-14T08:09:33;2.80;;;1.30;;
18378;SDS011;27025;51.986;5.984;2023-03-14T08:11:59;2.13;;;1.47;;
18378;SDS011;27025;51.986;5.984;2023-03-14T08:14:25;2.93;;;1.40;;
18378;SDS011;27025;51.986;5.984;2023-03-14T08:16:51;3.43;;;1.33;;
18378;SDS011;27025;51.986;5.984;2023-03-14T08:19:17;2.07;;;1.43;;
18378;SDS011;27025;51.986;5.984;2023-03-14T08:21:43;3.67;;;1.50;;
18378;SDS011;27025;51.986;5.984;2023-03-14T08:24:09;4.50;;;1.30;;
18378;SDS011;27025;51.986;5.984;2023-03-14T08:26:35;1.77;;;1.37;;
18378;SDS011;27025;51.986;5.984;2023-03-14T08:29:01;2.50;;;1.45;;
18378;SDS011;27025;51.986;5.984;2023-03-14T08:31:29;2.28;;;1.35;;
18378;SDS011;27025;51.986;5.984;2023-03-14T08:33:58;2.20;;;1.40;;
18378;SDS011;27025;51.986;5.984;2023-03-14T08:36:25;2.70;;;1.43;;
18378;SDS011;27025;51.986;5.984;2023-03-14T08:38:51;2.50;;;1.40;;
18378;SDS011;27025;51.986;5.984;2023-03-14T08:41:17;3.67;;;1.43;;
18378;SDS011;27025;51.986;5.984;2023-03-14T08:43:43;5.67;;;1.53;;
18378;SDS011;27025;51.986;5.984;2023-03-14T08:46:09;5.20;;;1.43;;
18378;SDS011;27025;51.986;5.984;2023-03-14T08:48:35;3.60;;;1.13;;
18378;SDS011;27025;51.986;5.984;2023-03-14T08:51:05;4.23;;;1.03;;
18378;SDS011;27025;51.986;5.984;2023-03-14T08:53:32;3.37;;;1.30;;
18378;SDS011;27025;51.986;5.984;2023-03-14T08:55:58;4.80;;;1.40;;
18378;SDS011;27025;51.986;5.984;2023-03-14T08:58:24;5.70;;;1.47;;
18378;SDS011;27025;51.986;5.984;2023-03-14T09:00:50;2.87;;;1.43;;
18378;SDS011;27025;51.986;5.984;2023-03-14T09:03:16;6.30;;;1.47;;
18378;SDS011;27025;51.986;5.984;2023-03-14T09:05:42;4.87;;;1.47;;
18378;SDS011;27025;51.986;5.984;2023-03-14T09:08:08;6.33;;;1.70;;
18378;SDS011;27025;51.986;5.984;2023-03-14T09:10:34;4.53;;;1.30;;
18378;SDS011;27025;51.986;5.984;2023-03-14T09:13:00;5.97;;;1.23;;
18378;SDS011;27025;51.986;5.984;2023-03-14T09:15:26;6.07;;;1.53;;
18378;SDS011;27025;51.986;5.984;2023-03-14T09:17:52;4.27;;;1.20;;
18378;SDS011;27025;51.986;5.984;2023-03-14T09:20:18;3.27;;;1.17;;
18378;SDS011;27025;51.986;5.984;2023-03-14T09:22:44;8.43;;;1.70;;
18378;SDS011;27025;51.986;5.984;2023-03-14T09:25:10;3.93;;;1.10;;
18378;SDS011;27025;51.986;5.984;2023-03-14T09:27:36;7.07;;;1.60;;
18378;SDS011;27025;51.986;5.984;2023-03-14T09:30:03;4.77;;;1.20;;
18378;SDS011;27025;51.986;5.984;2023-03-14T09:32:29;2.73;;;1.10;;
18378;SDS011;27025;51.986;5.984;2023-03-14T09:34:56;3.43;;;1.00;;
18378;SDS011;27025;51.986;5.984;2023-03-14T09:37:22;2.93;;;1.10;;
18378;SDS011;27025;51.986;5.984;2023-03-14T09:39:48;2.27;;;0.80;;
18378;SDS011;27025;51.986;5.984;2023-03-14T09:42:16;4.23;;;0.90;;
18378;SDS011;27025;51.986;5.984;2023-03-14T09:44:53;2.80;;;1.10;;
18378;SDS011;27025;51.986;5.984;2023-03-14T09:47:20;5.63;;;1.20;;
18378;SDS011;27025;51.986;5.984;2023-03-14T09:49:46;3.00;;;1.00;;
18378;SDS011;27025;51.986;5.984;2023-03-14T09:52:13;2.87;;;1.00;;
18378;SDS011;27025;51.986;5.984;2023-03-14T09:54:47;2.77;;;0.90;;
18378;SDS011;27025;51.986;5.984;2023-03-14T09:57:17;2.33;;;1.20;;
18378;SDS011;27025;51.986;5.984;2023-03-14T09:59:46;4.77;;;1.23;;
18378;SDS011;27025;51.986;5.984;2023-03-14T10:02:24;3.30;;;1.10;;
18378;SDS011;27025;51.986;5.984;2023-03-14T10:04:51;3.10;;;1.20;;
18378;SDS011;27025;51.986;5.984;2023-03-14T10:07:18;4.93;;;1.50;;
18378;SDS011;27025;51.986;5.984;2023-03-14T10:09:48;6.70;;;1.37;;
18378;SDS011;27025;51.986;5.984;2023-03-14T10:12:15;6.53;;;1.70;;
18378;SDS011;27025;51.986;5.984;2023-03-14T10:14:49;7.03;;;1.60;;
18378;SDS011;27025;51.986;5.984;2023-03-14T10:17:15;8.00;;;1.80;;
18378;SDS011;27025;51.986;5.984;2023-03-14T10:19:50;8.13;;;1.90;;
18378;SDS011;27025;51.986;5.984;2023-03-14T10:22:17;8.90;;;1.60;;
18378;SDS011;27025;51.986;5.984;2023-03-14T10:24:47;6.57;;;1.90;;
18378;SDS011;27025;51.986;5.984;2023-03-14T10:27:23;9.03;;;1.70;;
18378;SDS011;27025;51.986;5.984;2023-03-14T10:32:20;8.30;;;2.27;;
18378;SDS011;27025;51.986;5.984;2023-03-14T10:35:03;8.13;;;2.10;;
18378;SDS011;27025;51.986;5.984;2023-03-14T10:37:29;10.13;;;2.23;;
18378;SDS011;27025;51.986;5.984;2023-03-14T10:39:58;8.50;;;2.47;;
18378;SDS011;27025;51.986;5.984;2023-03-14T10:42:31;8.67;;;2.30;;
18378;SDS011;27025;51.986;5.984;2023-03-14T10:45:03;13.33;;;2.40;;
18378;SDS011;27025;51.986;5.984;2023-03-14T10:47:32;15.13;;;3.20;;
18378;SDS011;27025;51.986;5.984;2023-03-14T10:52:47;16.47;;;2.90;;
18378;SDS011;27025;51.986;5.984;2023-03-14T10:55:13;13.10;;;2.70;;
18378;SDS011;27025;51.986;5.984;2023-03-14T10:57:40;11.13;;;2.90;;
18378;SDS011;27025;51.986;5.984;2023-03-14T11:00:16;10.67;;;3.00;;
18378;SDS011;27025;51.986;5.984;2023-03-14T11:03:03;11.00;;;2.90;;
18378;SDS011;27025;51.986;5.984;2023-03-14T11:05:53;15.27;;;3.50;;
18378;SDS011;27025;51.986;5.984;2023-03-14T11:08:27;12.90;;;3.00;;
18378;SDS011;27025;51.986;5.984;2023-03-14T11:10:54;14.33;;;3.63;;
18378;SDS011;27025;51.986;5.984;2023-03-14T11:13:35;15.73;;;3.27;;
18378;SDS011;27025;51.986;5.984;2023-03-14T11:23:46;16.13;;;3.47;;
18378;SDS011;27025;51.986;5.984;2023-03-14T11:26:37;15.57;;;3.40;;
18378;SDS011;27025;51.986;5.984;2023-03-14T11:31:35;19.87;;;3.77;;
18378;SDS011;27025;51.986;5.984;2023-03-14T11:36:41;15.33;;;3.83;;
18378;SDS011;27025;51.986;5.984;2023-03-14T11:39:19;20.60;;;3.90;;
18378;SDS011;27025;51.986;5.984;2023-03-14T11:41:49;14.90;;;4.07;;
18378;SDS011;27025;51.986;5.984;2023-03-14T11:44:18;14.83;;;3.73;;
18378;SDS011;27025;51.986;5.984;2023-03-14T11:51:50;20.00;;;4.47;;
18378;SDS011;27025;51.986;5.984;2023-03-14T11:57:12;18.42;;;4.53;;
18378;SDS011;27025;51.986;5.984;2023-03-14T12:02:35;13.00;;;3.67;;
18378;SDS011;27025;51.986;5.984;2023-03-14T12:07:34;16.20;;;3.07;;
18378;SDS011;27025;51.986;5.984;2023-03-14T12:10:04;11.90;;;3.17;;
18378;SDS011;27025;51.986;5.984;2023-03-14T12:12:30;13.70;;;3.67;;
18378;SDS011;27025;51.986;5.984;2023-03-14T12:14:58;16.77;;;3.50;;
18378;SDS011;27025;51.986;5.984;2023-03-14T12:17:26;14.93;;;3.50;;
18378;SDS011;27025;51.986;5.984;2023-03-14T12:20:15;12.13;;;2.87;;
18378;SDS011;27025;51.986;5.984;2023-03-14T12:22:49;14.10;;;2.77;;
18378;SDS011;27025;51.986;5.984;2023-03-14T12:35:41;10.30;;;2.70;;
18378;SDS011;27025;51.986;5.984;2023-03-14T12:38:13;10.37;;;2.50;;
18378;SDS011;27025;51.986;5.984;2023-03-14T12:40:41;6.77;;;1.77;;
18378;SDS011;27025;51.986;5.984;2023-03-14T12:43:27;15.63;;;3.00;;
18378;SDS011;27025;51.986;5.984;2023-03-14T12:48:53;7.93;;;2.00;;
18378;SDS011;27025;51.986;5.984;2023-03-14T12:51:20;10.03;;;2.57;;
18378;SDS011;27025;51.986;5.984;2023-03-14T12:53:58;10.60;;;2.50;;
18378;SDS011;27025;51.986;5.984;2023-03-14T13:01:56;9.07;;;2.50;;
18378;SDS011;27025;51.986;5.984;2023-03-14T13:04:29;11.67;;;2.40;;
18378;SDS011;27025;51.986;5.984;2023-03-14T13:06:57;10.87;;;2.70;;
18378;SDS011;27025;51.986;5.984;2023-03-14T13:12:14;7.47;;;2.50;;
18378;SDS011;27025;51.986;5.984;2023-03-14T13:14:43;8.67;;;2.40;;
18378;SDS011;27025;51.986;5.984;2023-03-14T13:17:13;11.07;;;2.70;;
18378;SDS011;27025;51.986;5.984;2023-03-14T13:19:39;10.50;;;2.63;;
18378;SDS011;27025;51.986;5.984;2023-03-14T13:22:19;11.07;;;2.70;;
18378;SDS011;27025;51.986;5.984;2023-03-14T13:24:46;6.53;;;2.23;;
18378;SDS011;27025;51.986;5.984;2023-03-14T13:27:18;7.47;;;2.10;;
18378;SDS011;27025;51.986;5.984;2023-03-14T13:29:45;7.83;;;2.20;;
18378;SDS011;27025;51.986;5.984;2023-03-14T13:32:19;14.37;;;2.87;;
18378;SDS011;27025;51.986;5.984;2023-03-14T13:34:45;8.43;;;2.43;;
18378;SDS011;27025;51.986;5.984;2023-03-14T13:37:16;10.53;;;2.47;;
18378;SDS011;27025;51.986;5.984;2023-03-14T13:39:42;8.77;;;2.20;;
18378;SDS011;27025;51.986;5.984;2023-03-14T13:42:13;10.47;;;1.90;;
18378;SDS011;27025;51.986;5.984;2023-03-14T13:44:40;5.90;;;2.07;;
18378;SDS011;27025;51.986;5.984;2023-03-14T13:47:14;8.00;;;1.80;;
18378;SDS011;27025;51.986;5.984;2023-03-14T13:49:40;6.60;;;1.87;;
18378;SDS011;27025;51.986;5.984;2023-03-14T13:54:48;8.80;;;2.00;;
18378;SDS011;27025;51.986;5.984;2023-03-14T13:57:18;11.63;;;1.90;;
18378;SDS011;27025;51.986;5.984;2023-03-14T13:59:45;5.70;;;1.90;;
18378;SDS011;27025;51.986;5.984;2023-03-14T14:02:23;5.00;;;1.80;;
18378;SDS011;27025;51.986;5.984;2023-03-14T14:04:50;6.53;;;1.87;;
18378;SDS011;27025;51.986;5.984;2023-03-14T14:07:16;7.90;;;1.70;;
18378;SDS011;27025;51.986;5.984;2023-03-14T14:09:47;5.97;;;2.00;;
18378;SDS011;27025;51.986;5.984;2023-03-14T14:12:15;8.30;;;2.07;;
18378;SDS011;27025;51.986;5.984;2023-03-14T14:17:10;6.97;;;2.00;;
18378;SDS011;27025;51.986;5.984;2023-03-14T14:19:37;6.20;;;1.97;;
18378;SDS011;27025;51.986;5.984;2023-03-14T14:22:04;10.07;;;2.37;;
18378;SDS011;27025;51.986;5.984;2023-03-14T14:24:31;9.27;;;2.17;;
18378;SDS011;27025;51.986;5.984;2023-03-14T14:26:59;10.37;;;2.10;;
18378;SDS011;27025;51.986;5.984;2023-03-14T14:29:30;6.10;;;1.90;;
18378;SDS011;27025;51.986;5.984;2023-03-14T14:34:41;7.37;;;2.17;;
18378;SDS011;27025;51.986;5.984;2023-03-14T14:37:40;8.20;;;2.00;;
18378;SDS011;27025;51.986;5.984;2023-03-14T14:40:09;6.10;;;2.00;;
18378;SDS011;27025;51.986;5.984;2023-03-14T14:42:39;7.57;;;1.77;;
18378;SDS011;27025;51.986;5.984;2023-03-14T14:45:05;7.53;;;1.80;;
18378;SDS011;27025;51.986;5.984;2023-03-14T14:47:32;9.10;;;2.10;;
18378;SDS011;27025;51.986;5.984;2023-03-14T14:49:59;4.50;;;1.70;;
18378;SDS011;27025;51.986;5.984;2023-03-14T14:52:44;6.87;;;1.90;;
18378;SDS011;27025;51.986;5.984;2023-03-14T14:55:21;7.07;;;2.10;;
18378;SDS011;27025;51.986;5.984;2023-03-14T14:57:49;6.73;;;1.80;;
18378;SDS011;27025;51.986;5.984;2023-03-14T15:00:22;9.10;;;2.10;;
18378;SDS011;27025;51.986;5.984;2023-03-14T15:02:49;7.97;;;2.10;;
18378;SDS011;27025;51.986;5.984;2023-03-14T15:07:43;9.77;;;2.03;;
18378;SDS011;27025;51.986;5.984;2023-03-14T15:10:10;7.50;;;2.20;;
18378;SDS011;27025;51.986;5.984;2023-03-14T15:12:36;8.03;;;1.93;;
18378;SDS011;27025;51.986;5.984;2023-03-14T15:15:02;5.43;;;1.67;;
18378;SDS011;27025;51.986;5.984;2023-03-14T15:17:28;7.27;;;1.87;;
18378;SDS011;27025;51.986;5.984;2023-03-14T15:19:54;4.90;;;1.60;;
18378;SDS011;27025;51.986;5.984;2023-03-14T15:22:23;6.10;;;1.93;;
18378;SDS011;27025;51.986;5.984;2023-03-14T15:24:49;5.30;;;1.60;;
18378;SDS011;27025;51.986;5.984;2023-03-14T15:27:15;3.07;;;1.60;;
18378;SDS011;27025;51.986;5.984;2023-03-14T15:29:41;6.80;;;1.90;;
18378;SDS011;27025;51.986;5.984;2023-03-14T15:32:11;8.17;;;2.00;;
18378;SDS011;27025;51.986;5.984;2023-03-14T15:34:38;5.13;;;1.70;;
18378;SDS011;27025;51.986;5.984;2023-03-14T15:37:04;7.93;;;2.17;;
18378;SDS011;27025;51.986;5.984;2023-03-14T15:39:35;8.53;;;1.70;;
18378;SDS011;27025;51.986;5.984;2023-03-14T15:42:01;9.70;;;2.10;;
18378;SDS011;27025;51.986;5.984;2023-03-14T15:44:27;6.63;;;1.63;;
18378;SDS011;27025;51.986;5.984;2023-03-14T15:46:53;7.60;;;2.33;;
18378;SDS011;27025;51.986;5.984;2023-03-14T15:49:19;7.77;;;2.00;;
18378;SDS011;27025;51.986;5.984;2023-03-14T15:51:45;7.50;;;2.07;;
18378;SDS011;27025;51.986;5.984;2023-03-14T15:54:11;8.83;;;2.43;;
18378;SDS011;27025;51.986;5.984;2023-03-14T15:56:37;11.87;;;2.37;;
18378;SDS011;27025;51.986;5.984;2023-03-14T15:59:03;7.73;;;2.33;;